Time;durP1;ratioP1;P1;durP2;ratioP2;P2;SDS_P1;SDS_P2;PMS_P1;PMS_P2;Temp;Humidity;BMP_temperature;BMP_pressure;BME280_temperature;BME280_humidity;BME280_pressure;Samples;Min_cycle;Max_cycle;Signal;HPM_P1;HPM_P2
2023/09/19 00:00:46;;;;;;;18.27;6.40;;;22.10;94.70;;;;;;5093783;28;20205;-68
2023/09/19 00:03:14;;;;;;;13.70;5.60;;;22.00;94.80;;;;;;5097591;28;20208;-68
2023/09/19 00:05:45;;;;;;;19.90;7.67;;;22.10;94.90;;;;;;5103136;28;20616;-68
2023/09/19 00:08:13;;;;;;;14.97;6.97;;;22.10;94.80;;;;;;5105156;28;20197;-67
2023/09/19 00:10:41;;;;;;;24.07;7.10;;;22.10;94.70;;;;;;5097135;28;20221;-67
2023/09/19 00:13:13;;;;;;;21.33;6.73;;;22.10;94.70;;;;;;5103692;28;20205;-68
2023/09/19 00:15:48;;;;;;;23.40;6.13;;;22.10;94.70;;;;;;5093891;28;20217;-68
2023/09/19 00:18:28;;;;;;;22.80;6.90;;;22.10;94.70;;;;;;5094048;28;20193;-67
2023/09/19 00:20:58;;;;;;;16.43;6.37;;;22.10;94.70;;;;;;5100305;28;20595;-67
2023/09/19 00:23:26;;;;;;;12.93;5.70;;;22.10;94.80;;;;;;5091761;28;20232;-68
2023/09/19 00:25:57;;;;;;;17.17;6.93;;;22.00;94.70;;;;;;5082454;28;20250;-68
2023/09/19 00:28:24;;;;;;;15.10;6.83;;;22.10;94.70;;;;;;5103383;28;20201;-68
2023/09/19 00:30:51;;;;;;;16.63;6.47;;;22.00;94.70;;;;;;5082427;28;20213;-68
2023/09/19 00:33:19;;;;;;;19.23;6.90;;;22.00;94.80;;;;;;5082622;28;20240;-68
2023/09/19 00:35:54;;;;;;;14.73;5.83;;;21.90;94.80;;;;;;5083395;28;20212;-68
2023/09/19 00:38:24;;;;;;;15.67;5.90;;;22.00;94.90;;;;;;5099756;28;20223;-68
2023/09/19 00:40:51;;;;;;;18.37;6.00;;;21.90;94.90;;;;;;5103277;28;20214;-68
2023/09/19 00:43:19;;;;;;;13.77;6.90;;;21.90;94.90;;;;;;5095980;28;20702;-68
2023/09/19 00:45:48;;;;;;;13.73;6.73;;;21.80;95.00;;;;;;5088466;28;20202;-67
2023/09/19 00:48:17;;;;;;;21.07;6.27;;;21.90;95.00;;;;;;5095929;28;20635;-68
2023/09/19 00:50:47;;;;;;;15.50;6.47;;;21.80;95.10;;;;;;5101971;28;20308;-68
2023/09/19 00:53:18;;;;;;;12.83;5.90;;;21.80;95.10;;;;;;5079890;28;20207;-68
2023/09/19 00:55:47;;;;;;;14.57;6.23;;;21.80;95.10;;;;;;5102155;28;20638;-68
2023/09/19 00:58:15;;;;;;;14.93;4.80;;;21.70;95.10;;;;;;5067619;28;20639;-68
2023/09/19 01:00:43;;;;;;;17.53;6.57;;;21.70;95.20;;;;;;5089544;28;20310;-68
2023/09/19 01:03:13;;;;;;;22.70;6.67;;;21.60;95.30;;;;;;5086490;28;20611;-68
2023/09/19 01:05:40;;;;;;;22.93;7.07;;;21.60;95.40;;;;;;5093473;28;20538;-68
2023/09/19 01:08:07;;;;;;;15.90;5.93;;;21.60;95.50;;;;;;5091171;28;20208;-68
2023/09/19 01:10:36;;;;;;;12.40;6.07;;;21.60;95.50;;;;;;5099975;28;20653;-68
2023/09/19 01:13:23;;;;;;;17.47;6.43;;;21.60;95.50;;;;;;5092532;28;20335;-68
2023/09/19 01:16:15;;;;;;;17.47;7.10;;;21.60;95.60;;;;;;5100202;28;20231;-68
2023/09/19 01:19:07;;;;;;;13.47;5.67;;;21.60;95.60;;;;;;5102649;28;20208;-68
2023/09/19 01:21:43;;;;;;;16.63;6.07;;;21.60;95.60;;;;;;5096403;28;20642;-68
2023/09/19 01:24:38;;;;;;;17.60;6.57;;;21.50;95.60;;;;;;5080979;28;20208;-68
2023/09/19 01:27:20;;;;;;;13.80;5.03;;;21.50;95.60;;;;;;5091671;28;20282;-68
2023/09/19 01:29:49;;;;;;;15.50;6.53;;;21.50;95.60;;;;;;5080490;28;20540;-68
2023/09/19 01:32:21;;;;;;;18.50;6.50;;;21.50;95.50;;;;;;5061766;28;20704;-67
2023/09/19 01:34:58;;;;;;;20.37;6.80;;;21.40;95.60;;;;;;5099140;28;20220;-67
2023/09/19 01:37:26;;;;;;;12.80;6.27;;;21.40;95.60;;;;;;5096838;28;20295;-68
2023/09/19 01:40:25;;;;;;;18.40;6.83;;;21.40;95.70;;;;;;5101754;28;20204;-68
2023/09/19 01:42:56;;;;;;;22.17;6.23;;;21.40;95.80;;;;;;5080786;28;20326;-68
2023/09/19 01:45:32;;;;;;;15.43;6.63;;;21.40;95.80;;;;;;5098356;28;20653;-68
2023/09/19 01:48:18;;;;;;;17.93;6.80;;;21.30;95.80;;;;;;5094796;28;20193;-68
2023/09/19 01:51:05;;;;;;;15.50;6.60;;;21.30;95.90;;;;;;5079791;28;20254;-68
2023/09/19 01:53:42;;;;;;;14.17;6.20;;;21.30;96.00;;;;;;5092290;28;20192;-68
2023/09/19 01:56:21;;;;;;;18.73;6.90;;;21.30;96.00;;;;;;5061241;28;20205;-68
2023/09/19 01:58:53;;;;;;;21.87;6.70;;;21.30;96.00;;;;;;5062698;28;20205;-68
2023/09/19 02:01:24;;;;;;;17.47;7.03;;;21.30;95.90;;;;;;5080377;28;20217;-68
2023/09/19 02:03:51;;;;;;;18.63;7.93;;;21.30;95.90;;;;;;5092050;28;20197;-68
2023/09/19 02:06:19;;;;;;;15.90;7.07;;;21.30;96.00;;;;;;5064422;28;20654;-69
2023/09/19 02:08:47;;;;;;;19.13;7.57;;;21.30;96.00;;;;;;5084239;28;20209;-68
2023/09/19 02:11:14;;;;;;;18.77;6.87;;;21.20;96.00;;;;;;5089414;28;20231;-68
2023/09/19 02:13:42;;;;;;;12.87;6.80;;;21.30;96.10;;;;;;5067183;28;20202;-68
2023/09/19 02:16:12;;;;;;;16.33;7.03;;;21.20;96.10;;;;;;5103065;28;20228;-68
2023/09/19 02:18:39;;;;;;;21.33;7.27;;;21.20;96.00;;;;;;5075057;28;20200;-68
2023/09/19 02:21:06;;;;;;;11.30;6.40;;;21.20;96.00;;;;;;5095435;28;20196;-68
2023/09/19 02:23:33;;;;;;;16.70;6.87;;;21.20;95.90;;;;;;5084621;28;20215;-67
2023/09/19 02:26:00;;;;;;;18.23;7.00;;;21.20;96.00;;;;;;5083161;28;20269;-67
2023/09/19 02:28:31;;;;;;;14.87;7.53;;;21.20;96.00;;;;;;5081568;28;20550;-67
2023/09/19 02:30:59;;;;;;;23.37;7.70;;;21.20;96.10;;;;;;5068952;28;20591;-68
2023/09/19 02:33:26;;;;;;;21.87;7.37;;;21.20;96.20;;;;;;5100178;28;20319;-67
2023/09/19 02:36:00;;;;;;;13.97;6.03;;;21.10;96.20;;;;;;5075362;28;20228;-68
2023/09/19 02:38:28;;;;;;;15.97;7.77;;;21.10;96.20;;;;;;5098481;28;20196;-68
2023/09/19 02:40:56;;;;;;;19.77;8.10;;;21.10;96.30;;;;;;5080524;28;20201;-68
2023/09/19 02:43:23;;;;;;;13.73;7.23;;;21.10;96.30;;;;;;5101573;28;20204;-68
2023/09/19 02:45:53;;;;;;;21.90;7.37;;;21.10;96.20;;;;;;5091963;28;20525;-68
2023/09/19 02:48:20;;;;;;;22.27;8.23;;;21.10;96.20;;;;;;5065207;28;20189;-68
2023/09/19 02:50:51;;;;;;;18.17;7.57;;;21.10;96.10;;;;;;5086725;28;20193;-68
2023/09/19 02:53:18;;;;;;;15.17;6.80;;;21.10;96.00;;;;;;5065741;28;20222;-67
2023/09/19 02:55:47;;;;;;;21.17;7.43;;;21.10;96.00;;;;;;5099795;28;20246;-67
2023/09/19 02:58:14;;;;;;;21.90;7.77;;;21.10;96.00;;;;;;5098716;28;20193;-67
2023/09/19 03:00:42;;;;;;;23.57;8.03;;;21.10;96.00;;;;;;5087801;28;20189;-68
2023/09/19 03:03:09;;;;;;;16.67;6.73;;;21.10;96.00;;;;;;5095784;28;20713;-68
2023/09/19 03:05:38;;;;;;;18.03;7.40;;;21.10;96.00;;;;;;5075738;28;20556;-68
2023/09/19 03:08:06;;;;;;;19.47;6.93;;;21.10;96.00;;;;;;5091790;28;20292;-67
2023/09/19 03:10:33;;;;;;;19.63;6.87;;;21.10;96.00;;;;;;5080214;28;20584;-68
2023/09/19 03:13:01;;;;;;;20.87;7.27;;;21.10;96.00;;;;;;5084188;28;20333;-67
2023/09/19 03:15:29;;;;;;;20.17;8.40;;;21.10;96.00;;;;;;5083489;28;20211;-67
2023/09/19 03:17:57;;;;;;;27.87;8.47;;;21.10;95.90;;;;;;5081384;28;20204;-67
2023/09/19 03:20:25;;;;;;;18.63;7.83;;;21.10;95.80;;;;;;5063029;28;20204;-68
2023/09/19 03:22:52;;;;;;;20.43;7.73;;;21.10;95.70;;;;;;5081922;28;20766;-67
2023/09/19 03:25:22;;;;;;;23.13;7.03;;;21.10;95.60;;;;;;5082367;28;20208;-67
2023/09/19 03:27:50;;;;;;;20.13;7.93;;;21.10;95.70;;;;;;5069696;28;20783;-68
2023/09/19 03:30:18;;;;;;;17.10;7.37;;;21.10;95.70;;;;;;5069661;28;20194;-67
2023/09/19 03:32:47;;;;;;;13.07;7.43;;;21.00;95.80;;;;;;5067532;28;20250;-68
2023/09/19 03:35:14;;;;;;;24.30;7.60;;;21.00;95.90;;;;;;5081833;28;20205;-67
2023/09/19 03:37:42;;;;;;;12.37;7.50;;;21.00;95.90;;;;;;5098315;28;20294;-67
2023/09/19 03:40:10;;;;;;;15.63;8.07;;;21.00;96.00;;;;;;5092188;28;20192;-67
2023/09/19 03:42:39;;;;;;;17.17;6.93;;;21.00;96.30;;;;;;5079017;28;20210;-67
2023/09/19 03:45:12;;;;;;;13.37;7.03;;;21.00;96.00;;;;;;5081997;28;20281;-68
2023/09/19 03:47:46;;;;;;;14.37;7.20;;;21.00;95.90;;;;;;5075325;28;20657;-67
2023/09/19 03:50:17;;;;;;;21.37;8.67;;;20.90;95.80;;;;;;5084641;28;20213;-67
2023/09/19 03:52:45;;;;;;;18.60;7.67;;;20.90;95.80;;;;;;5064386;28;20222;-67
2023/09/19 03:55:12;;;;;;;24.30;7.83;;;20.90;95.80;;;;;;5063449;28;20391;-67
2023/09/19 03:57:40;;;;;;;17.50;7.40;;;20.90;95.90;;;;;;5082143;28;20208;-67
2023/09/19 04:00:11;;;;;;;17.80;6.40;;;20.90;96.00;;;;;;5083553;28;20209;-67
2023/09/19 04:02:40;;;;;;;22.27;8.03;;;20.80;95.90;;;;;;5091886;28;20202;-67
2023/09/19 04:05:08;;;;;;;23.70;7.87;;;20.80;95.90;;;;;;5078251;28;20209;-67
2023/09/19 04:07:35;;;;;;;17.23;7.33;;;20.80;96.00;;;;;;5083197;28;20208;-67
2023/09/19 04:10:03;;;;;;;18.13;7.27;;;20.80;96.00;;;;;;5098515;28;20204;-67
2023/09/19 04:12:30;;;;;;;18.40;7.50;;;20.80;96.00;;;;;;5094150;28;20208;-67
2023/09/19 04:14:57;;;;;;;13.87;7.40;;;20.80;96.10;;;;;;5084912;28;20635;-67
2023/09/19 04:17:24;;;;;;;18.13;7.80;;;20.80;96.10;;;;;;5086530;28;20189;-67
2023/09/19 04:19:51;;;;;;;20.00;7.70;;;20.70;96.10;;;;;;5085100;28;20197;-67
2023/09/19 04:22:18;;;;;;;19.10;7.67;;;20.80;96.10;;;;;;5084458;28;20647;-67
2023/09/19 04:24:46;;;;;;;25.10;7.63;;;20.70;96.10;;;;;;5069243;28;20216;-67
2023/09/19 04:27:14;;;;;;;21.07;8.20;;;20.70;96.20;;;;;;5096933;28;20212;-67
2023/09/19 04:29:42;;;;;;;18.57;7.70;;;20.60;96.20;;;;;;5083907;28;20202;-67
2023/09/19 04:32:09;;;;;;;26.37;8.83;;;20.60;96.30;;;;;;5084833;28;20328;-67
2023/09/19 04:34:38;;;;;;;16.77;7.27;;;20.60;96.30;;;;;;5094070;28;20198;-67
2023/09/19 04:37:05;;;;;;;15.47;7.83;;;20.60;96.40;;;;;;5103223;28;20201;-67
2023/09/19 04:39:33;;;;;;;19.00;8.13;;;20.60;96.40;;;;;;5090201;28;20202;-67
2023/09/19 04:42:01;;;;;;;18.60;8.30;;;20.60;96.40;;;;;;5099992;28;20291;-67
2023/09/19 04:44:28;;;;;;;22.27;9.03;;;20.60;96.50;;;;;;5097299;28;20204;-67
2023/09/19 04:46:55;;;;;;;16.23;7.37;;;20.60;96.50;;;;;;5102299;28;20208;-67
2023/09/19 04:49:23;;;;;;;21.53;8.50;;;20.60;96.50;;;;;;5101244;28;20190;-67
2023/09/19 04:51:50;;;;;;;20.90;8.70;;;20.60;96.50;;;;;;5094785;28;20288;-67
2023/09/19 04:54:18;;;;;;;14.60;7.73;;;20.60;96.60;;;;;;5095614;28;20263;-68
2023/09/19 04:56:45;;;;;;;20.53;7.77;;;20.50;96.50;;;;;;5097857;28;20196;-67
2023/09/19 04:59:12;;;;;;;22.60;9.27;;;20.50;96.50;;;;;;5083018;28;20562;-67
2023/09/19 05:01:39;;;;;;;23.50;10.30;;;20.50;96.50;;;;;;5096718;28;20201;-68
2023/09/19 05:04:06;;;;;;;19.10;9.30;;;20.50;96.60;;;;;;5106115;28;20588;-67
2023/09/19 05:06:36;;;;;;;18.43;8.53;;;20.50;96.60;;;;;;5098768;28;20200;-68
2023/09/19 05:09:05;;;;;;;20.03;7.60;;;20.50;96.60;;;;;;5102234;28;20189;-67
2023/09/19 05:11:33;;;;;;;21.70;9.07;;;20.60;96.60;;;;;;5081077;28;20204;-68
2023/09/19 05:14:03;;;;;;;28.87;9.87;;;20.60;96.70;;;;;;5092068;28;20193;-68
2023/09/19 05:16:34;;;;;;;17.43;8.53;;;20.60;96.70;;;;;;5087589;28;20535;-68
2023/09/19 05:19:01;;;;;;;15.27;9.37;;;20.50;96.70;;;;;;5079009;28;20200;-67
2023/09/19 05:21:30;;;;;;;18.77;8.17;;;20.60;96.70;;;;;;5097977;28;20252;-67
2023/09/19 05:23:58;;;;;;;17.77;8.97;;;20.60;96.70;;;;;;5081916;28;20207;-68
2023/09/19 05:26:25;;;;;;;17.93;8.47;;;20.60;96.70;;;;;;5103745;28;20216;-67
2023/09/19 05:28:52;;;;;;;22.60;8.37;;;20.60;96.70;;;;;;5102461;28;20191;-67
2023/09/19 05:31:20;;;;;;;24.53;8.83;;;20.70;96.80;;;;;;5101512;28;20202;-67
2023/09/19 05:33:47;;;;;;;23.63;9.27;;;20.70;96.80;;;;;;5081699;28;20241;-68
2023/09/19 05:36:16;;;;;;;17.03;7.77;;;20.70;96.80;;;;;;5078294;28;20204;-67
2023/09/19 05:38:44;;;;;;;19.37;7.70;;;20.80;96.80;;;;;;5084089;28;20202;-67
2023/09/19 05:41:13;;;;;;;17.27;7.87;;;20.80;96.80;;;;;;5094253;28;20197;-67
2023/09/19 05:43:41;;;;;;;20.37;7.57;;;20.80;96.80;;;;;;5095561;28;20197;-68
2023/09/19 05:46:08;;;;;;;19.47;8.70;;;20.90;96.70;;;;;;5093974;28;20197;-67
2023/09/19 05:48:36;;;;;;;19.37;7.83;;;21.00;96.60;;;;;;5103307;28;20207;-68
2023/09/19 05:51:03;;;;;;;19.50;8.47;;;21.10;96.50;;;;;;5097271;28;20212;-68
2023/09/19 05:53:30;;;;;;;14.60;7.07;;;21.30;96.50;;;;;;5103930;28;20307;-68
2023/09/19 05:55:57;;;;;;;17.33;7.97;;;21.70;96.20;;;;;;5097574;28;20531;-68
2023/09/19 05:58:24;;;;;;;17.23;8.50;;;22.20;95.50;;;;;;5094283;28;20204;-67
2023/09/19 06:00:52;;;;;;;13.57;7.10;;;22.60;94.40;;;;;;5096491;28;20192;-67
2023/09/19 06:03:20;;;;;;;20.10;9.07;;;22.90;93.70;;;;;;5098866;28;20594;-67
2023/09/19 06:05:49;;;;;;;18.30;7.73;;;22.90;93.50;;;;;;5093079;28;20224;-67
2023/09/19 06:08:16;;;;;;;15.83;7.70;;;22.90;93.40;;;;;;5095239;28;20204;-68
2023/09/19 06:10:43;;;;;;;17.70;8.70;;;22.80;93.60;;;;;;5100793;28;20196;-67
2023/09/19 06:13:11;;;;;;;17.33;9.20;;;22.70;93.80;;;;;;5098237;28;20238;-67
2023/09/19 06:15:38;;;;;;;19.17;9.57;;;22.70;94.00;;;;;;5103727;28;20208;-67
2023/09/19 06:18:13;;;;;;;19.73;9.47;;;22.60;94.30;;;;;;5095428;28;20197;-68
2023/09/19 06:20:44;;;;;;;21.10;9.67;;;22.60;94.50;;;;;;5105606;28;20691;-67
2023/09/19 06:23:11;;;;;;;24.17;9.17;;;22.60;94.60;;;;;;5092882;28;20201;-67
2023/09/19 06:25:39;;;;;;;21.87;9.77;;;22.70;94.60;;;;;;5096980;28;20540;-68
2023/09/19 06:28:08;;;;;;;22.33;8.80;;;22.80;94.40;;;;;;5077673;28;20220;-68
2023/09/19 06:30:35;;;;;;;21.47;8.87;;;22.80;94.40;;;;;;5102425;28;20563;-68
2023/09/19 06:33:03;;;;;;;18.90;8.47;;;22.90;94.40;;;;;;5093024;28;20251;-68
2023/09/19 06:35:33;;;;;;;18.10;9.10;;;23.00;94.30;;;;;;5092463;28;20206;-67
2023/09/19 06:38:04;;;;;;;20.97;9.53;;;23.10;94.10;;;;;;5092946;28;20564;-68
2023/09/19 06:40:31;;;;;;;28.03;9.37;;;23.10;94.00;;;;;;5091460;28;20203;-68
2023/09/19 06:42:58;;;;;;;19.63;8.73;;;23.20;93.90;;;;;;5102704;28;20280;-68
2023/09/19 06:45:26;;;;;;;20.63;9.60;;;23.30;93.70;;;;;;5091782;28;20208;-68
2023/09/19 06:47:57;;;;;;;20.03;10.17;;;23.30;93.60;;;;;;5087047;28;20198;-68
2023/09/19 06:50:25;;;;;;;23.57;11.13;;;23.20;93.60;;;;;;5100096;28;20554;-68
2023/09/19 06:52:54;;;;;;;32.00;11.73;;;23.20;93.50;;;;;;5096838;28;20543;-68
2023/09/19 06:55:27;;;;;;;24.27;12.33;;;23.20;93.60;;;;;;5095208;28;20254;-68
2023/09/19 06:57:55;;;;;;;18.40;12.40;;;23.30;93.70;;;;;;5103842;28;20193;-69
2023/09/19 07:00:23;;;;;;;27.13;13.50;;;23.30;93.50;;;;;;5097390;28;20567;-68
2023/09/19 07:03:03;;;;;;;26.13;11.70;;;23.20;93.30;;;;;;5099535;28;20200;-68
2023/09/19 07:05:32;;;;;;;35.90;13.17;;;23.20;93.30;;;;;;5077831;28;20216;-69
2023/09/19 07:08:00;;;;;;;24.03;12.23;;;23.20;93.40;;;;;;5078083;28;20210;-68
2023/09/19 07:10:28;;;;;;;24.63;12.17;;;23.20;93.50;;;;;;5093577;28;20206;-68
2023/09/19 07:12:59;;;;;;;25.40;12.13;;;23.20;93.60;;;;;;5098906;28;20304;-68
2023/09/19 07:15:27;;;;;;;36.20;12.80;;;23.30;93.60;;;;;;5092270;28;20204;-68
2023/09/19 07:17:56;;;;;;;27.73;12.43;;;23.30;93.50;;;;;;5097790;28;20213;-68
2023/09/19 07:20:28;;;;;;;27.03;13.40;;;23.30;93.50;;;;;;5087418;28;20209;-68
2023/09/19 07:22:55;;;;;;;23.33;12.57;;;23.40;93.60;;;;;;5095252;28;20506;-68
2023/09/19 07:25:22;;;;;;;34.13;13.13;;;23.40;93.70;;;;;;5093228;28;20253;-68
2023/09/19 07:27:50;;;;;;;26.33;12.93;;;23.50;93.70;;;;;;5093082;28;20215;-68
2023/09/19 07:30:18;;;;;;;24.70;12.00;;;23.60;93.80;;;;;;5090280;28;20239;-68
2023/09/19 07:32:45;;;;;;;24.20;10.93;;;23.80;93.70;;;;;;5088989;28;20540;-68
2023/09/19 07:35:12;;;;;;;23.60;12.03;;;23.80;93.60;;;;;;5095934;28;20200;-68
2023/09/19 07:37:39;;;;;;;22.00;11.50;;;23.90;93.40;;;;;;5092278;28;20193;-68
2023/09/19 07:40:07;;;;;;;28.00;11.83;;;24.10;93.40;;;;;;5099128;28;20630;-69
2023/09/19 07:42:35;;;;;;;23.33;10.77;;;24.20;93.20;;;;;;5096909;28;20258;-68
2023/09/19 07:45:02;;;;;;;23.50;10.17;;;24.30;93.10;;;;;;5102641;28;20212;-68
2023/09/19 07:47:30;;;;;;;16.83;10.50;;;24.40;93.10;;;;;;5086593;28;20216;-68
2023/09/19 07:49:58;;;;;;;21.90;11.20;;;24.60;93.10;;;;;;5098285;28;20212;-68
2023/09/19 07:52:27;;;;;;;23.30;11.23;;;24.90;92.80;;;;;;5100049;28;20203;-69
2023/09/19 07:54:55;;;;;;;25.30;10.57;;;25.10;92.20;;;;;;5098304;28;20252;-66
2023/09/19 07:57:22;;;;;;;22.10;10.87;;;25.30;91.90;;;;;;5097299;28;20200;-66
2023/09/19 07:59:49;;;;;;;20.63;11.80;;;25.50;91.70;;;;;;5096039;28;20199;-66
2023/09/19 08:02:16;;;;;;;21.40;9.37;;;25.70;91.40;;;;;;5088792;28;20573;-66
2023/09/19 08:04:45;;;;;;;14.37;9.87;;;25.90;91.20;;;;;;5100538;28;20211;-66
2023/09/19 08:07:13;;;;;;;25.00;10.13;;;26.10;90.90;;;;;;5085811;28;20226;-66
2023/09/19 08:09:40;;;;;;;21.97;9.40;;;26.30;90.60;;;;;;5098591;28;20220;-66
2023/09/19 08:12:11;;;;;;;26.43;10.80;;;26.50;90.30;;;;;;5077033;28;20308;-66
2023/09/19 08:14:41;;;;;;;22.43;10.47;;;26.70;90.10;;;;;;5079580;28;20224;-66
2023/09/19 08:17:08;;;;;;;25.37;10.27;;;26.90;89.60;;;;;;5100178;28;20197;-66
2023/09/19 08:19:36;;;;;;;19.73;9.10;;;27.10;88.80;;;;;;5094886;28;20200;-67
2023/09/19 08:22:03;;;;;;;26.13;9.63;;;27.20;88.30;;;;;;5096225;28;20278;-66
2023/09/19 08:24:31;;;;;;;17.30;10.10;;;27.40;88.00;;;;;;5084155;28;20207;-66
2023/09/19 08:26:58;;;;;;;24.27;10.67;;;27.60;87.20;;;;;;5083874;28;20192;-66
2023/09/19 08:29:27;;;;;;;22.50;10.20;;;27.70;86.40;;;;;;5093300;28;20584;-66
2023/09/19 08:31:55;;;;;;;24.43;9.83;;;27.90;85.70;;;;;;5098267;28;20647;-66
2023/09/19 08:34:24;;;;;;;30.97;10.13;;;28.00;85.10;;;;;;5095937;28;20297;-67
2023/09/19 08:36:58;;;;;;;20.40;9.43;;;28.10;84.70;;;;;;5098240;28;20251;-67
2023/09/19 08:39:25;;;;;;;20.17;9.37;;;28.20;84.20;;;;;;5089706;28;20198;-67
2023/09/19 08:41:59;;;;;;;20.90;9.83;;;28.40;83.80;;;;;;5095560;28;20193;-66
2023/09/19 08:44:30;;;;;;;22.77;10.17;;;28.50;83.30;;;;;;5092465;28;20643;-66
2023/09/19 08:47:15;;;;;;;18.83;9.53;;;28.70;82.80;;;;;;5099079;28;20201;-66
2023/09/19 08:49:51;;;;;;;15.00;8.83;;;28.80;82.30;;;;;;5098627;28;20584;-66
2023/09/19 08:52:42;;;;;;;19.77;10.23;;;29.00;81.50;;;;;;5097484;28;20673;-66
2023/09/19 08:55:20;;;;;;;16.60;9.13;;;29.00;80.40;;;;;;5088437;28;20589;-67
2023/09/19 08:57:50;;;;;;;24.27;10.07;;;29.00;80.70;;;;;;5098855;28;20542;-67
2023/09/19 09:00:18;;;;;;;24.53;9.97;;;28.90;80.10;;;;;;5099253;28;20193;-67
2023/09/19 09:02:47;;;;;;;17.70;8.27;;;28.80;80.00;;;;;;5083670;28;20198;-66
2023/09/19 09:05:16;;;;;;;16.37;8.03;;;28.70;80.30;;;;;;5096884;28;20205;-66
2023/09/19 09:07:44;;;;;;;21.60;7.77;;;28.70;81.10;;;;;;5085112;28;20209;-66
2023/09/19 09:10:12;;;;;;;15.23;7.83;;;28.80;79.90;;;;;;5097749;28;20205;-67
2023/09/19 09:12:40;;;;;;;18.97;7.70;;;28.90;79.90;;;;;;5097418;28;20201;-67
2023/09/19 09:15:11;;;;;;;17.33;7.07;;;28.90;78.70;;;;;;5095260;28;20639;-67
2023/09/19 09:17:38;;;;;;;18.70;6.70;;;29.00;78.90;;;;;;5104854;28;20571;-67
2023/09/19 09:20:08;;;;;;;17.30;7.80;;;29.10;78.70;;;;;;5079698;28;20202;-67
2023/09/19 09:22:36;;;;;;;16.47;8.23;;;29.20;78.40;;;;;;5099302;28;20218;-67
2023/09/19 09:25:04;;;;;;;19.27;8.13;;;29.10;78.20;;;;;;5090887;28;20201;-67
2023/09/19 09:27:32;;;;;;;23.00;6.83;;;29.10;78.30;;;;;;5103201;28;20295;-67
2023/09/19 09:29:59;;;;;;;18.47;7.17;;;29.20;78.40;;;;;;5097962;28;20541;-67
2023/09/19 09:32:34;;;;;;;13.43;6.37;;;29.20;77.90;;;;;;5093341;28;20244;-67
2023/09/19 09:35:09;;;;;;;23.03;8.23;;;29.30;78.10;;;;;;5094975;28;20231;-67
2023/09/19 09:37:38;;;;;;;21.20;7.87;;;29.40;77.40;;;;;;5097264;28;20235;-67
2023/09/19 09:42:46;;;;;;;18.83;6.57;;;29.60;76.20;;;;;;5095147;28;20518;-66
2023/09/19 09:45:37;;;;;;;18.13;6.83;;;29.60;75.80;;;;;;5088946;28;20193;-67
2023/09/19 09:48:14;;;;;;;15.67;6.13;;;29.70;75.50;;;;;;5099043;28;20193;-67
2023/09/19 09:53:27;;;;;;;15.20;5.70;;;29.80;74.10;;;;;;5093995;28;20222;-67
2023/09/19 09:56:05;;;;;;;16.03;5.90;;;29.80;73.70;;;;;;5079057;28;20189;-67
2023/09/19 09:58:54;;;;;;;17.10;5.57;;;29.90;74.10;;;;;;5099550;28;20239;-67
2023/09/19 10:01:26;;;;;;;18.33;6.50;;;30.00;73.20;;;;;;5100008;28;20229;-66
2023/09/19 10:04:00;;;;;;;13.67;6.40;;;30.00;73.20;;;;;;5095387;28;20638;-66
2023/09/19 10:06:47;;;;;;;15.73;6.27;;;30.00;73.10;;;;;;5091226;28;20538;-66
2023/09/19 10:09:17;;;;;;;13.53;6.33;;;30.00;73.10;;;;;;5094435;28;20240;-67
2023/09/19 10:11:59;;;;;;;19.83;6.73;;;30.00;72.50;;;;;;5092103;28;20632;-67
2023/09/19 10:14:31;;;;;;;13.20;6.03;;;30.00;72.50;;;;;;5090613;28;20213;-67
2023/09/19 10:17:04;;;;;;;16.73;6.07;;;30.00;72.00;;;;;;5100063;28;20228;-67
2023/09/19 10:19:46;;;;;;;14.70;5.10;;;30.00;72.30;;;;;;5099110;28;20188;-66
2023/09/19 10:22:16;;;;;;;14.17;5.33;;;30.10;72.40;;;;;;5103691;28;20200;-67
2023/09/19 10:24:46;;;;;;;15.00;5.57;;;30.20;72.20;;;;;;5094654;28;20205;-67
2023/09/19 10:27:37;;;;;;;14.53;6.50;;;30.20;71.20;;;;;;5069720;28;20233;-67
2023/09/19 10:30:09;;;;;;;23.00;7.27;;;30.30;70.00;;;;;;5095976;28;20205;-67
2023/09/19 10:32:40;;;;;;;16.03;7.77;;;30.30;70.10;;;;;;5074391;28;20236;-67
2023/09/19 10:35:12;;;;;;;17.50;7.87;;;30.30;70.80;;;;;;5091658;28;20658;-67
2023/09/19 10:37:40;;;;;;;13.83;7.13;;;30.20;70.70;;;;;;5096576;28;20253;-66
2023/09/19 10:40:08;;;;;;;11.77;6.73;;;30.30;70.80;;;;;;5082163;28;20210;-66
2023/09/19 10:42:39;;;;;;;16.27;6.23;;;30.30;70.00;;;;;;5092102;28;20212;-66
2023/09/19 10:45:12;;;;;;;17.57;7.97;;;30.30;70.20;;;;;;5085252;28;20200;-66
2023/09/19 10:47:40;;;;;;;14.70;6.30;;;30.40;69.40;;;;;;5093034;28;20205;-67
2023/09/19 10:50:09;;;;;;;21.97;6.90;;;30.50;69.00;;;;;;5097633;28;20205;-66
2023/09/19 10:52:42;;;;;;;12.20;8.03;;;30.60;69.50;;;;;;5093314;28;20250;-66
2023/09/19 10:55:15;;;;;;;12.97;6.97;;;30.60;68.80;;;;;;5090312;28;20299;-66
2023/09/19 10:57:46;;;;;;;19.83;8.23;;;30.60;69.20;;;;;;5095031;28;20610;-66
2023/09/19 11:03:11;;;;;;;16.97;8.17;;;30.70;69.00;;;;;;5094628;28;20193;-66
2023/09/19 11:05:40;;;;;;;17.80;7.73;;;30.60;68.30;;;;;;5092037;28;20190;-66
2023/09/19 11:08:08;;;;;;;18.07;7.93;;;30.60;68.10;;;;;;5093738;28;20225;-66
2023/09/19 11:10:48;;;;;;;16.70;7.53;;;30.60;68.00;;;;;;5084423;28;20529;-66
2023/09/19 11:13:37;;;;;;;15.80;7.43;;;30.70;68.60;;;;;;5097035;28;20633;-66
2023/09/19 11:16:04;;;;;;;19.37;8.33;;;30.70;68.80;;;;;;5096237;28;20192;-66
2023/09/19 11:18:41;;;;;;;17.23;7.10;;;30.80;68.70;;;;;;5098610;28;20200;-66
2023/09/19 11:21:31;;;;;;;12.97;6.30;;;30.80;68.50;;;;;;5087148;28;20586;-67
2023/09/19 11:24:22;;;;;;;12.63;6.50;;;30.90;67.70;;;;;;5098189;28;20209;-66
2023/09/19 11:26:49;;;;;;;14.67;6.37;;;31.00;66.80;;;;;;5100778;28;20212;-66
2023/09/19 11:29:27;;;;;;;15.73;6.77;;;31.00;66.10;;;;;;5097942;28;20509;-66
2023/09/19 11:31:56;;;;;;;11.93;7.60;;;31.10;66.20;;;;;;5100582;28;20236;-66
2023/09/19 11:34:36;;;;;;;15.80;6.93;;;31.10;65.80;;;;;;5102650;28;20240;-66
2023/09/19 11:37:15;;;;;;;11.57;6.50;;;31.00;65.00;;;;;;5098162;28;20197;-66
2023/09/19 11:40:16;;;;;;;14.07;6.20;;;31.00;64.90;;;;;;5091318;28;20193;-65
2023/09/19 11:42:45;;;;;;;16.23;7.90;;;31.00;65.40;;;;;;5097130;28;20707;-66
2023/09/19 11:45:57;;;;;;;15.23;6.33;;;31.00;66.50;;;;;;5100183;28;20236;-66
2023/09/19 11:48:27;;;;;;;14.03;6.40;;;31.00;65.40;;;;;;5053720;28;20641;-66
2023/09/19 11:50:55;;;;;;;14.50;6.23;;;31.00;65.40;;;;;;5093289;28;20197;-67
2023/09/19 11:53:24;;;;;;;13.13;5.80;;;31.10;65.40;;;;;;5103221;28;20605;-66
2023/09/19 11:55:52;;;;;;;9.90;5.57;;;31.10;64.90;;;;;;5102839;28;20205;-66
2023/09/19 11:58:20;;;;;;;14.70;5.50;;;31.20;65.10;;;;;;5094281;28;20220;-66
2023/09/19 12:00:58;;;;;;;12.83;5.83;;;31.20;64.70;;;;;;5088731;28;20193;-66
2023/09/19 12:03:30;;;;;;;16.73;5.87;;;31.20;63.80;;;;;;5101089;28;20241;-66
2023/09/19 12:05:58;;;;;;;12.67;5.73;;;31.10;64.40;;;;;;5098369;28;20285;-66
2023/09/19 12:08:27;;;;;;;12.90;6.07;;;31.20;64.80;;;;;;5100573;28;20288;-66
2023/09/19 12:10:55;;;;;;;13.50;5.63;;;31.20;64.80;;;;;;5097788;28;20198;-66
2023/09/19 12:13:23;;;;;;;13.80;5.77;;;31.20;64.60;;;;;;5095728;28;20185;-66
2023/09/19 12:15:50;;;;;;;15.93;5.47;;;31.20;64.00;;;;;;5105288;28;20219;-66
2023/09/19 12:18:30;;;;;;;12.23;5.87;;;31.20;64.20;;;;;;5098862;28;20275;-66
2023/09/19 12:20:58;;;;;;;7.60;5.83;;;31.20;63.60;;;;;;5095048;28;20209;-66
2023/09/19 12:23:28;;;;;;;12.77;5.43;;;31.20;63.70;;;;;;5098309;28;20195;-66
2023/09/19 12:25:56;;;;;;;12.67;5.00;;;31.30;63.80;;;;;;5096601;28;20614;-66
2023/09/19 12:28:30;;;;;;;12.40;5.20;;;31.40;63.50;;;;;;5093517;28;20196;-65
2023/09/19 12:31:07;;;;;;;17.13;6.17;;;31.40;62.90;;;;;;5094222;28;20576;-66
2023/09/19 12:33:36;;;;;;;15.27;5.10;;;31.40;63.50;;;;;;5098557;28;20701;-66
2023/09/19 12:36:29;;;;;;;10.67;5.47;;;31.40;63.70;;;;;;5092492;28;20193;-66
2023/09/19 12:38:59;;;;;;;13.60;5.47;;;31.40;62.70;;;;;;5101482;28;20200;-66
2023/09/19 12:41:26;;;;;;;13.60;5.53;;;31.30;62.10;;;;;;5095054;28;20221;-65
2023/09/19 12:43:54;;;;;;;12.50;6.03;;;31.30;61.60;;;;;;5099947;28;20205;-66
2023/09/19 12:46:25;;;;;;;17.57;5.97;;;31.40;62.30;;;;;;5095590;28;20285;-66
2023/09/19 12:49:17;;;;;;;15.67;5.70;;;31.40;62.20;;;;;;5079977;28;20210;-66
2023/09/19 12:51:48;;;;;;;9.43;4.40;;;31.30;62.40;;;;;;5092402;28;20437;-66
2023/09/19 12:54:19;;;;;;;13.63;4.93;;;31.30;62.70;;;;;;5083740;28;20660;-66
2023/09/19 12:56:48;;;;;;;14.00;5.53;;;31.40;62.30;;;;;;5101524;28;20190;-66
2023/09/19 12:59:16;;;;;;;14.03;5.80;;;31.40;61.90;;;;;;5094913;28;20197;-66
2023/09/19 13:01:46;;;;;;;9.80;5.20;;;31.40;62.00;;;;;;5096838;28;20234;-67